Terminal Aerodrome Forecast
Issued by NWS Quad Cities IA IL

Home | Current Version | Previous Version | Text Only | Print | Product List | Glossary On
Versions: 1 2 3 4 5 6 7 8 9 10 11 12 13 14 15 16 17 18 19
000
FTUS43 KDVN 210500
TAFDBQ
TAF
KDBQ 210520Z 2106/2206 22008KT P6SM BKN120
     FM211000 22007KT P6SM VCSH SCT040 OVC070
     FM211600 24012KT P6SM VCSH OVC035
      TEMPO 2116/2120 4SM -SHRA BR BKN025
     FM212100 32013KT P6SM BKN040=

USA.gov is the U.S. government's official web portal to all federal, state and local government web resources and services.